Flight Briefing for CPX406

Departure Arrival
Nashville International Airport (KBNA)
Click to view FAA NOTAMS
Chicago/Rockford International Airport (KRFD)
Click to view FAA NOTAMS
Departure Time Arrival Time
N/A N/A
Aircraft Distance
B757-200SF 381nm
Departure METAR Arrival METAR
KBNA 250153Z 22005KT 10SM BKN120 BKN250 27/22 A3007 RMK AO2 SLP174 T02670217 KRFD 250154Z 13003KT 10SM SCT042 SCT150 22/20 A2990 RMK AO2 SLP122 T02170200
Suggested Route
HGGRD PXV J73 GUIDO JOT


View recent IFR Routes data
Notes



Charts and Procedures

Charts for KBNA
No chart available
Charts for KRFD
No chart available

Windy.com Weather Map